sensor_id;sensor_type;location;lat;lon;timestamp;pressure;altitude;pressure_sealevel;temperature;humidity
7586;BME280;12459;42.646;23.292;2023-03-03T00:15:00;93480.47;;;3.94;100.00
7586;BME280;12459;42.646;23.292;2023-03-03T00:30:02;93723.59;;;5.57;100.00
7586;BME280;12459;42.646;23.292;2023-03-03T00:45:29;93527.09;;;3.98;100.00
7586;BME280;12459;42.646;23.292;2023-03-03T01:00:32;93555.69;;;4.49;100.00
7586;BME280;12459;42.646;23.292;2023-03-03T01:15:35;93380.88;;;3.52;100.00
7586;BME280;12459;42.646;23.292;2023-03-03T01:30:37;93549.97;;;4.88;100.00
7586;BME280;12459;42.646;23.292;2023-03-03T02:01:07;93528.97;;;4.72;100.00
7586;BME280;12459;42.646;23.292;2023-03-03T02:16:10;93601.72;;;5.11;100.00
7586;BME280;12459;42.646;23.292;2023-03-03T02:31:15;93618.94;;;5.25;100.00
7586;BME280;12459;42.646;23.292;2023-03-03T02:46:17;93339.03;;;3.31;100.00
7586;BME280;12459;42.646;23.292;2023-03-03T03:01:19;93673.50;;;4.78;100.00
7586;BME280;12459;42.646;23.292;2023-03-03T03:16:21;93642.50;;;5.30;100.00
7586;BME280;12459;42.646;23.292;2023-03-03T03:31:24;93506.63;;;3.95;100.00
7586;BME280;12459;42.646;23.292;2023-03-03T03:46:26;93232.38;;;2.56;100.00
7586;BME280;12459;42.646;23.292;2023-03-03T04:01:28;93611.75;;;5.25;100.00
7586;BME280;12459;42.646;23.292;2023-03-03T04:16:30;93519.03;;;4.21;100.00
7586;BME280;12459;42.646;23.292;2023-03-03T04:31:32;93503.19;;;4.28;100.00
7586;BME280;12459;42.646;23.292;2023-03-03T04:46:33;93441.41;;;3.87;100.00
7586;BME280;12459;42.646;23.292;2023-03-03T05:01:35;93347.34;;;2.40;100.00
7586;BME280;12459;42.646;23.292;2023-03-03T05:16:37;93528.97;;;4.31;100.00
7586;BME280;12459;42.646;23.292;2023-03-03T05:31:39;93609.97;;;4.99;100.00
7586;BME280;12459;42.646;23.292;2023-03-03T05:46:40;93534.44;;;4.45;100.00
7586;BME280;12459;42.646;23.292;2023-03-03T06:01:43;93451.56;;;3.81;100.00
7586;BME280;12459;42.646;23.292;2023-03-03T06:16:44;93554.41;;;4.76;100.00
7586;BME280;12459;42.646;23.292;2023-03-03T06:31:46;93557.38;;;4.68;100.00
7586;BME280;12459;42.646;23.292;2023-03-03T06:46:48;93585.53;;;4.09;100.00
7586;BME280;12459;42.646;23.292;2023-03-03T07:01:50;93472.97;;;4.36;100.00
7586;BME280;12459;42.646;23.292;2023-03-03T07:16:58;93665.81;;;5.47;100.00
7586;BME280;12459;42.646;23.292;2023-03-03T07:32:02;93555.56;;;4.79;100.00
7586;BME280;12459;42.646;23.292;2023-03-03T07:47:34;93424.38;;;4.25;100.00
7586;BME280;12459;42.646;23.292;2023-03-03T08:02:39;93653.44;;;5.72;100.00
7586;BME280;12459;42.646;23.292;2023-03-03T08:17:42;93478.53;;;4.72;100.00
7586;BME280;12459;42.646;23.292;2023-03-03T08:32:45;93491.38;;;4.63;100.00
7586;BME280;12459;42.646;23.292;2023-03-03T08:47:47;93548.78;;;5.29;100.00
7586;BME280;12459;42.646;23.292;2023-03-03T09:02:50;93615.31;;;6.09;100.00
7586;BME280;12459;42.646;23.292;2023-03-03T09:17:52;93606.59;;;6.16;100.00
7586;BME280;12459;42.646;23.292;2023-03-03T09:32:55;93567.44;;;6.05;100.00
7586;BME280;12459;42.646;23.292;2023-03-03T11:20:50;93572.59;;;6.85;100.00
7586;BME280;12459;42.646;23.292;2023-03-03T11:51:14;93391.03;;;5.69;100.00
7586;BME280;12459;42.646;23.292;2023-03-03T12:22:10;93462.22;;;6.22;100.00
7586;BME280;12459;42.646;23.292;2023-03-03T12:37:47;93574.13;;;7.15;100.00
7586;BME280;12459;42.646;23.292;2023-03-03T13:39:30;93448.56;;;6.52;100.00
7586;BME280;12459;42.646;23.292;2023-03-03T13:54:55;93550.16;;;7.29;100.00
7586;BME280;12459;42.646;23.292;2023-03-03T14:10:12;93511.72;;;6.87;100.00
7586;BME280;12459;42.646;23.292;2023-03-03T14:25:18;93539.13;;;7.30;100.00
7586;BME280;12459;42.646;23.292;2023-03-03T14:40:21;93537.59;;;7.29;100.00
7586;BME280;12459;42.646;23.292;2023-03-03T14:55:36;93436.78;;;6.50;100.00
7586;BME280;12459;42.646;23.292;2023-03-03T15:10:41;93572.22;;;7.26;100.00
7586;BME280;12459;42.646;23.292;2023-03-03T15:26:08;93408.63;;;6.20;100.00
7586;BME280;12459;42.646;23.292;2023-03-03T15:56:50;93527.31;;;6.71;100.00
7586;BME280;12459;42.646;23.292;2023-03-03T16:12:20;93573.38;;;7.18;100.00
7586;BME280;12459;42.646;23.292;2023-03-03T16:42:38;93576.78;;;7.08;100.00
7586;BME280;12459;42.646;23.292;2023-03-03T16:58:04;93613.34;;;7.14;100.00
7586;BME280;12459;42.646;23.292;2023-03-03T17:13:24;93620.94;;;7.23;100.00
7586;BME280;12459;42.646;23.292;2023-03-03T17:44:23;93655.97;;;7.11;100.00
7586;BME280;12459;42.646;23.292;2023-03-03T17:59:58;93666.25;;;7.16;100.00
7586;BME280;12459;42.646;23.292;2023-03-03T18:15:38;93654.41;;;6.92;100.00
7586;BME280;12459;42.646;23.292;2023-03-03T18:30:57;93678.38;;;6.95;100.00
7586;BME280;12459;42.646;23.292;2023-03-03T18:46:00;93297.25;;;3.99;100.00
7586;BME280;12459;42.646;23.292;2023-03-03T19:31:40;93717.16;;;6.86;100.00
7586;BME280;12459;42.646;23.292;2023-03-03T19:47:03;93566.53;;;5.84;100.00
7586;BME280;12459;42.646;23.292;2023-03-03T21:03:40;93646.00;;;6.76;100.00
7586;BME280;12459;42.646;23.292;2023-03-03T21:34:17;93712.59;;;6.79;100.00
7586;BME280;12459;42.646;23.292;2023-03-03T21:49:19;93715.34;;;7.11;100.00
7586;BME280;12459;42.646;23.292;2023-03-03T22:04:20;93588.81;;;5.61;100.00
7586;BME280;12459;42.646;23.292;2023-03-03T22:19:22;93541.00;;;5.65;100.00
7586;BME280;12459;42.646;23.292;2023-03-03T22:34:24;93582.75;;;5.61;100.00
7586;BME280;12459;42.646;23.292;2023-03-03T22:49:25;93487.06;;;4.47;100.00
7586;BME280;12459;42.646;23.292;2023-03-03T23:04:27;93380.84;;;3.89;100.00
7586;BME280;12459;42.646;23.292;2023-03-03T23:19:29;93597.50;;;5.51;100.00
7586;BME280;12459;42.646;23.292;2023-03-03T23:34:31;93615.91;;;5.26;100.00
7586;BME280;12459;42.646;23.292;2023-03-03T23:49:34;93726.41;;;6.26;100.00
